createdAt,value
2018-12-31T00:04:13.811Z,101990.48
2018-12-31T00:06:39.964Z,101991.12
2018-12-31T00:09:06.187Z,101988.59
2018-12-31T00:11:32.318Z,101987.70
2018-12-31T00:13:58.443Z,101985.27
2018-12-31T00:16:24.618Z,101983.36
2018-12-31T00:18:50.811Z,101981.47
2018-12-31T00:21:16.956Z,101981.70
2018-12-31T00:23:43.207Z,101978.17
2018-12-31T00:26:09.333Z,101979.71
2018-12-31T00:28:35.448Z,101989.23
2018-12-31T00:31:01.670Z,101984.02
2018-12-31T00:33:27.800Z,101973.14
2018-12-31T00:35:54.022Z,101979.37
2018-12-31T00:38:20.164Z,101997.62
2018-12-31T00:40:46.285Z,101981.39
2018-12-31T00:43:12.523Z,101972.41
2018-12-31T00:45:38.655Z,101976.45
2018-12-31T00:48:04.787Z,101976.72
2018-12-31T00:50:30.905Z,101968.25
2018-12-31T00:52:57.034Z,101966.31
2018-12-31T00:55:23.148Z,101970.11
2018-12-31T00:57:49.392Z,101962.78
2018-12-31T01:00:15.507Z,101965.83
2018-12-31T01:02:41.752Z,101967.98
2018-12-31T01:05:07.980Z,101972.66
2018-12-31T01:07:34.191Z,101965.30
2018-12-31T01:10:00.306Z,101963.01
2018-12-31T01:12:26.539Z,101959.83
2018-12-31T01:14:52.755Z,101955.64
2018-12-31T01:17:18.983Z,101963.28
2018-12-31T01:19:45.115Z,101953.53
2018-12-31T01:22:11.327Z,101956.75
2018-12-31T01:24:37.476Z,101956.23
2018-12-31T01:27:03.715Z,101957.62
2018-12-31T01:29:29.847Z,101962.05
2018-12-31T01:31:55.966Z,101962.94
2018-12-31T01:34:22.097Z,101953.19
2018-12-31T01:36:48.240Z,101954.20
2018-12-31T01:39:14.371Z,101951.56
2018-12-31T01:41:41.842Z,101950.16
2018-12-31T01:44:08.743Z,101945.36
2018-12-31T01:46:34.866Z,101964.84
2018-12-31T01:49:01.100Z,101950.79
2018-12-31T01:51:27.217Z,101951.33
2018-12-31T01:53:53.453Z,101946.02
2018-12-31T01:56:19.571Z,101942.58
2018-12-31T01:58:45.790Z,101935.89
2018-12-31T02:01:12.022Z,101932.21
2018-12-31T02:03:38.145Z,101927.27
2018-12-31T02:06:04.275Z,101924.20
2018-12-31T02:08:30.388Z,101928.13
2018-12-31T02:10:56.516Z,101926.75
2018-12-31T02:13:22.633Z,101929.16
2018-12-31T02:15:48.877Z,101931.32
2018-12-31T02:18:15.000Z,101938.40
2018-12-31T02:20:41.232Z,101933.71
2018-12-31T02:23:07.470Z,101932.20
2018-12-31T02:25:33.620Z,101927.89
2018-12-31T02:27:59.835Z,101935.76
2018-12-31T02:30:26.173Z,101937.89
2018-12-31T02:32:52.383Z,101936.13
2018-12-31T02:35:18.539Z,101926.62
2018-12-31T02:37:44.765Z,101934.48
2018-12-31T02:40:10.982Z,101926.73
2018-12-31T02:42:37.123Z,101926.23
2018-12-31T02:48:03.578Z,101906.62
2018-12-31T02:50:29.705Z,101920.56
2018-12-31T02:52:55.942Z,101913.95
2018-12-31T02:55:22.154Z,101921.06
2018-12-31T02:57:48.385Z,101916.00
2018-12-31T03:00:14.602Z,101920.92
2018-12-31T03:02:40.743Z,101933.33
2018-12-31T03:05:06.855Z,101915.86
2018-12-31T03:07:33.084Z,101901.95
2018-12-31T03:09:59.259Z,101904.46
2018-12-31T03:12:25.581Z,101904.58
2018-12-31T03:14:51.790Z,101901.80
2018-12-31T03:17:17.943Z,101896.88
2018-12-31T03:19:44.053Z,101911.69
2018-12-31T03:22:10.192Z,101892.83
2018-12-31T03:24:36.317Z,101877.40
2018-12-31T03:27:02.436Z,101884.36
2018-12-31T03:29:28.580Z,101872.83
2018-12-31T03:31:54.816Z,101876.00
2018-12-31T03:34:21.039Z,101879.05
2018-12-31T03:36:47.159Z,101876.66
2018-12-31T03:39:13.289Z,101868.69
2018-12-31T03:44:52.880Z,101865.14
2018-12-31T03:47:19.001Z,101863.24
2018-12-31T03:49:45.130Z,101846.67
2018-12-31T03:52:11.346Z,101846.41
2018-12-31T03:54:37.586Z,101834.51
2018-12-31T03:57:03.702Z,101836.78
2018-12-31T03:59:29.835Z,101832.85
2018-12-31T04:01:56.062Z,101838.05
2018-12-31T04:04:22.191Z,101828.97
2018-12-31T04:06:48.312Z,101820.37
2018-12-31T04:09:14.453Z,101824.91
2018-12-31T04:11:40.562Z,101839.32
2018-12-31T04:14:06.704Z,101815.30
2018-12-31T04:16:32.808Z,101817.58
2018-12-31T04:18:59.052Z,101833.91
2018-12-31T04:21:25.243Z,101825.91
2018-12-31T04:23:51.473Z,101826.44
2018-12-31T04:26:17.614Z,101816.69
2018-12-31T04:28:43.748Z,101807.47
2018-12-31T04:31:10.003Z,101806.20
2018-12-31T04:33:36.227Z,101797.22
2018-12-31T04:36:02.347Z,101792.77
2018-12-31T04:38:28.468Z,101783.94
2018-12-31T04:40:54.596Z,101790.63
2018-12-31T04:43:20.717Z,101766.10
2018-12-31T04:45:46.953Z,101777.59
2018-12-31T04:48:13.167Z,101767.37
2018-12-31T04:50:39.299Z,101770.13
2018-12-31T04:53:05.522Z,101761.16
2018-12-31T04:58:04.334Z,101771.66
2018-12-31T05:00:30.454Z,101767.74
2018-12-31T05:02:56.590Z,101765.59
2018-12-31T05:05:22.707Z,101766.21
2018-12-31T05:07:48.940Z,101759.14
2018-12-31T05:10:15.155Z,101752.57
2018-12-31T05:12:41.289Z,101752.81
2018-12-31T05:15:07.507Z,101744.96
2018-12-31T05:17:33.639Z,101747.38
2018-12-31T05:19:59.756Z,101739.67
2018-12-31T05:22:25.951Z,101744.86
2018-12-31T05:24:52.183Z,101738.16
2018-12-31T05:27:18.316Z,101733.75
2018-12-31T05:29:44.451Z,101752.30
2018-12-31T05:32:10.584Z,101736.63
2018-12-31T05:34:36.698Z,101736.15
2018-12-31T05:37:02.819Z,101727.67
2018-12-31T05:39:29.047Z,101729.42
2018-12-31T05:41:55.279Z,101729.70
2018-12-31T05:44:21.432Z,101725.50
2018-12-31T05:46:47.624Z,101711.59
2018-12-31T05:49:13.766Z,101706.78
2018-12-31T05:51:39.879Z,101716.66
2018-12-31T05:54:06.003Z,101684.78
2018-12-31T05:56:32.223Z,101691.36
2018-12-31T05:58:58.354Z,101699.06
2018-12-31T06:01:24.609Z,101676.92
2018-12-31T06:03:50.880Z,101667.53
2018-12-31T06:06:16.997Z,101655.91
2018-12-31T06:08:43.117Z,101664.94
2018-12-31T06:11:09.350Z,101662.03
2018-12-31T06:13:35.484Z,101662.99
2018-12-31T06:16:01.606Z,101650.95
2018-12-31T06:18:27.729Z,101647.11
2018-12-31T06:20:53.957Z,101645.66
2018-12-31T06:23:20.188Z,101639.12
2018-12-31T06:25:46.418Z,101635.50
2018-12-31T06:28:12.543Z,101629.61
2018-12-31T06:30:38.686Z,101628.27
2018-12-31T06:33:04.803Z,101626.41
2018-12-31T06:35:30.937Z,101622.28
2018-12-31T06:37:57.153Z,101618.42
2018-12-31T06:40:23.286Z,101610.06
2018-12-31T06:42:49.503Z,101609.98
2018-12-31T06:45:15.641Z,101602.40
2018-12-31T06:47:41.858Z,101590.72
2018-12-31T06:50:08.098Z,101576.91
2018-12-31T06:52:34.395Z,101581.28
2018-12-31T06:55:00.564Z,101568.85
2018-12-31T06:57:26.778Z,101566.54
2018-12-31T06:59:53.007Z,101558.50
2018-12-31T07:02:19.138Z,101549.61
2018-12-31T07:04:45.452Z,101538.33
2018-12-31T07:07:11.680Z,101536.50
2018-12-31T07:09:37.897Z,101525.92
2018-12-31T07:12:04.030Z,101524.20
2018-12-31T07:14:30.250Z,101519.08
2018-12-31T07:16:56.383Z,101510.78
2018-12-31T07:19:22.503Z,101504.30
2018-12-31T07:21:48.628Z,101493.27
2018-12-31T07:24:14.756Z,101493.00
2018-12-31T07:26:40.991Z,101492.44
2018-12-31T07:29:07.218Z,101487.34
2018-12-31T07:31:33.471Z,101477.03
2018-12-31T07:33:59.691Z,101470.05
2018-12-31T07:36:25.823Z,101445.62
2018-12-31T07:38:52.057Z,101446.95
2018-12-31T07:41:18.251Z,101442.75
2018-12-31T07:43:44.395Z,101434.11
2018-12-31T07:46:10.509Z,101425.34
2018-12-31T07:48:36.642Z,101413.81
2018-12-31T07:51:02.769Z,101403.48
2018-12-31T07:53:28.996Z,101394.30
2018-12-31T07:55:55.216Z,101385.14
2018-12-31T07:58:21.347Z,101374.77
2018-12-31T08:00:47.463Z,101370.76
2018-12-31T08:03:13.699Z,101359.72
2018-12-31T08:05:39.824Z,101360.95
2018-12-31T08:08:05.935Z,101348.63
2018-12-31T08:10:32.191Z,101349.77
2018-12-31T08:12:58.311Z,101342.25
2018-12-31T08:15:24.552Z,101329.55
2018-12-31T08:17:50.670Z,101315.61
2018-12-31T08:20:16.904Z,101307.64
2018-12-31T08:22:43.076Z,101302.64
2018-12-31T08:25:09.233Z,101292.02
2018-12-31T08:27:35.352Z,101298.19
2018-12-31T08:30:01.591Z,101277.95
2018-12-31T08:32:27.719Z,101264.42
2018-12-31T08:34:54.047Z,101258.56
2018-12-31T08:37:20.171Z,101245.74
2018-12-31T08:39:46.411Z,101242.96
2018-12-31T08:42:12.538Z,101228.22
2018-12-31T08:44:38.783Z,101216.97
2018-12-31T08:47:05.006Z,101200.61
2018-12-31T08:49:31.239Z,101197.55
2018-12-31T08:51:57.476Z,101186.78
2018-12-31T08:54:23.633Z,101169.34
2018-12-31T08:56:49.754Z,101174.41
2018-12-31T08:59:15.998Z,101146.63
2018-12-31T09:01:42.228Z,101126.65
2018-12-31T09:04:08.354Z,101104.22
2018-12-31T09:06:34.670Z,101087.87
2018-12-31T09:09:00.903Z,101097.48
2018-12-31T09:11:27.143Z,101061.14
2018-12-31T09:13:53.272Z,101070.45
2018-12-31T09:16:19.398Z,101060.53
2018-12-31T09:18:45.615Z,101048.02
2018-12-31T09:21:11.846Z,101033.08
2018-12-31T09:23:37.959Z,101016.28
2018-12-31T09:26:04.103Z,101011.67
2018-12-31T09:28:30.338Z,100994.77
2018-12-31T09:30:56.612Z,100994.62
2018-12-31T09:33:22.823Z,100975.28
2018-12-31T09:35:48.941Z,100968.04
2018-12-31T09:38:15.179Z,100957.22
2018-12-31T09:40:41.427Z,100951.76
2018-12-31T09:43:07.648Z,100936.22
2018-12-31T09:45:33.779Z,100917.20
2018-12-31T09:47:59.905Z,100919.81
2018-12-31T09:50:26.138Z,100902.94
2018-12-31T09:52:52.358Z,100897.74
2018-12-31T09:55:18.492Z,100886.09
2018-12-31T09:57:44.631Z,100879.16
2018-12-31T10:00:10.871Z,100860.09
2018-12-31T10:02:37.120Z,100842.31
2018-12-31T10:05:35.792Z,100839.30
2018-12-31T10:08:02.031Z,100830.16
2018-12-31T10:10:28.259Z,100818.47
2018-12-31T10:12:54.393Z,100826.27
2018-12-31T10:15:20.511Z,100812.79
2018-12-31T10:17:46.741Z,100776.77
2018-12-31T10:20:12.854Z,100762.44
2018-12-31T10:22:39.086Z,100753.33
2018-12-31T10:25:05.304Z,100757.64
2018-12-31T10:27:31.435Z,100739.83
2018-12-31T10:29:57.555Z,100731.08
2018-12-31T10:32:23.678Z,100724.16
2018-12-31T10:34:49.900Z,100720.27
2018-12-31T10:37:16.142Z,100708.53
2018-12-31T10:39:42.264Z,100682.91
2018-12-31T10:42:08.508Z,100687.17
2018-12-31T10:44:34.628Z,100679.33
2018-12-31T10:47:00.764Z,100667.61
2018-12-31T10:49:26.978Z,100649.34
2018-12-31T10:51:53.112Z,100637.54
2018-12-31T10:54:19.231Z,100612.73
2018-12-31T10:56:45.362Z,100601.00
2018-12-31T10:59:11.603Z,100593.18
2018-12-31T11:01:37.718Z,100576.70
2018-12-31T11:04:03.848Z,100567.95
2018-12-31T11:06:29.967Z,100560.11
2018-12-31T11:08:56.097Z,100547.08
2018-12-31T11:11:22.217Z,100533.23
2018-12-31T11:13:48.348Z,100519.77
2018-12-31T11:16:14.463Z,100502.83
2018-12-31T11:18:40.685Z,100488.45
2018-12-31T11:21:06.816Z,100464.09
2018-12-31T11:23:32.945Z,100451.09
2018-12-31T11:25:59.060Z,100446.75
2018-12-31T11:28:25.217Z,100435.45
2018-12-31T11:30:51.787Z,100438.06
2018-12-31T11:33:19.608Z,100437.19
2018-12-31T11:35:45.830Z,100422.78
2018-12-31T11:38:11.961Z,100406.67
2018-12-31T11:40:38.187Z,100407.54
2018-12-31T11:43:04.304Z,100403.19
2018-12-31T11:45:30.425Z,100395.80
2018-12-31T11:47:56.656Z,100385.34
2018-12-31T11:50:22.871Z,100369.27
2018-12-31T11:52:49.005Z,100342.80
2018-12-31T11:55:15.122Z,100332.81
2018-12-31T11:57:41.246Z,100343.62
2018-12-31T12:02:40.985Z,100290.14
2018-12-31T12:05:07.130Z,100289.31
2018-12-31T12:07:33.241Z,100261.03
2018-12-31T12:09:59.649Z,100260.59
2018-12-31T12:12:27.523Z,100245.34
2018-12-31T12:14:53.659Z,100249.73
2018-12-31T12:17:19.789Z,100240.98
2018-12-31T12:19:45.923Z,100208.39
2018-12-31T12:22:12.047Z,100215.78
2018-12-31T12:24:38.299Z,100212.31
2018-12-31T12:27:04.535Z,100210.52
2018-12-31T12:29:30.702Z,100192.22
2018-12-31T12:31:56.828Z,100196.56
2018-12-31T12:34:23.088Z,100168.75
2018-12-31T12:36:49.213Z,100166.14
2018-12-31T12:39:15.346Z,100155.32
2018-12-31T12:41:43.391Z,100143.16
2018-12-31T12:44:09.553Z,100126.64
2018-12-31T12:46:35.798Z,100133.55
2018-12-31T12:49:02.033Z,100119.70
2018-12-31T12:51:28.278Z,100112.73
2018-12-31T12:53:54.391Z,100099.70
2018-12-31T13:04:05.672Z,100056.20
2018-12-31T13:06:31.831Z,100044.51
2018-12-31T13:08:58.055Z,100037.14
2018-12-31T13:11:24.278Z,100048.48
2018-12-31T13:13:50.416Z,100011.49
2018-12-31T13:16:16.656Z,100012.75
2018-12-31T13:18:42.787Z,99993.24
2018-12-31T13:21:09.244Z,99988.89
2018-12-31T13:23:35.408Z,99992.76
2018-12-31T13:26:01.680Z,99984.49
2018-12-31T13:28:27.808Z,99967.11
2018-12-31T13:30:53.950Z,99952.77
2018-12-31T13:33:20.086Z,99951.45
2018-12-31T13:35:48.225Z,99934.94
2018-12-31T13:38:14.494Z,99919.75
2018-12-31T13:40:40.655Z,99903.23
2018-12-31T13:43:06.938Z,99906.26
2018-12-31T13:45:33.202Z,99895.39
2018-12-31T13:47:59.430Z,99862.16
2018-12-31T13:50:27.573Z,99890.63
2018-12-31T13:52:53.937Z,99867.16
2018-12-31T13:55:20.165Z,99854.18
2018-12-31T13:57:46.516Z,99859.77
2018-12-31T14:00:12.851Z,99867.54
2018-12-31T14:02:39.032Z,99841.95
2018-12-31T14:05:07.067Z,99833.70
2018-12-31T14:07:33.303Z,99840.22
2018-12-31T14:09:59.583Z,99834.14
2018-12-31T14:12:25.814Z,99861.50
2018-12-31T14:14:52.044Z,99833.70
2018-12-31T14:17:18.293Z,99810.18
2018-12-31T14:19:46.453Z,99811.09
2018-12-31T14:22:12.695Z,99808.05
2018-12-31T14:24:39.090Z,99796.33
2018-12-31T14:27:05.327Z,99773.31
2018-12-31T14:29:31.487Z,99758.55
2018-12-31T14:31:57.653Z,99760.72
2018-12-31T14:34:25.789Z,99737.25
2018-12-31T14:36:52.028Z,99724.22
2018-12-31T14:39:18.160Z,99726.82
2018-12-31T14:41:44.320Z,99718.56
2018-12-31T14:44:10.569Z,99711.59
2018-12-31T14:46:36.817Z,99714.20
2018-12-31T14:49:03.259Z,99704.66
2018-12-31T14:51:29.398Z,99686.83
2018-12-31T14:53:55.631Z,99671.61
2018-12-31T14:56:21.761Z,99662.06
2018-12-31T14:58:47.897Z,99657.66
2018-12-31T15:01:14.196Z,99648.09
2018-12-31T15:03:40.436Z,99626.84
2018-12-31T15:06:06.661Z,99619.05
2018-12-31T15:08:32.902Z,99599.49
2018-12-31T15:10:59.127Z,99593.84
2018-12-31T15:13:25.369Z,99579.50
2018-12-31T15:15:51.511Z,99576.03
2018-12-31T15:20:51.743Z,99536.90
2018-12-31T15:23:17.986Z,99539.89
2018-12-31T15:25:44.235Z,99517.73
2018-12-31T15:28:10.375Z,99523.80
2018-12-31T15:30:36.598Z,99527.72
2018-12-31T15:33:02.731Z,99525.53
2018-12-31T15:35:28.957Z,99534.65
2018-12-31T15:37:55.103Z,99528.60
2018-12-31T15:40:21.329Z,99531.62
2018-12-31T15:42:47.544Z,99516.88
2018-12-31T15:45:13.787Z,99505.61
2018-12-31T15:47:40.018Z,99497.31
2018-12-31T15:50:06.451Z,99494.27
2018-12-31T15:52:32.684Z,99487.30
2018-12-31T15:54:58.926Z,99482.09
2018-12-31T15:57:25.147Z,99486.36
2018-12-31T15:59:51.392Z,99475.07
2018-12-31T16:02:17.517Z,99453.33
2018-12-31T16:04:43.766Z,99454.63
2018-12-31T16:07:09.989Z,99433.77
2018-12-31T16:09:36.235Z,99416.83
2018-12-31T16:12:02.468Z,99412.89
2018-12-31T16:14:28.619Z,99409.42
2018-12-31T16:19:42.459Z,99385.89
2018-12-31T16:22:08.683Z,99375.02
2018-12-31T16:24:35.012Z,99367.64
2018-12-31T16:27:01.149Z,99374.55
2018-12-31T16:29:27.327Z,99367.61
2018-12-31T16:31:55.369Z,99358.91
2018-12-31T16:34:21.596Z,99359.79
2018-12-31T16:36:47.740Z,99346.31
2018-12-31T16:39:13.881Z,99342.84
2018-12-31T16:41:40.137Z,99343.73
2018-12-31T16:44:06.293Z,99324.59
2018-12-31T16:46:32.619Z,99316.70
2018-12-31T16:48:58.751Z,99306.24
2018-12-31T16:51:24.980Z,99316.67
2018-12-31T16:53:51.216Z,99323.61
2018-12-31T16:56:17.362Z,99307.99
2018-12-31T16:58:43.597Z,99309.74
2018-12-31T17:01:09.836Z,99291.94
2018-12-31T17:03:36.055Z,99289.80
2018-12-31T17:06:02.194Z,99290.70
2018-12-31T17:08:28.428Z,99257.69
2018-12-31T17:10:54.676Z,99255.91
2018-12-31T17:13:20.930Z,99258.90
2018-12-31T17:15:47.186Z,99247.67
2018-12-31T17:18:13.416Z,99237.19
2018-12-31T17:20:39.661Z,99238.45
2018-12-31T17:23:05.794Z,99247.61
2018-12-31T17:25:32.454Z,99246.31
2018-12-31T17:27:58.688Z,99227.13
2018-12-31T17:30:24.981Z,99227.92
2018-12-31T17:32:51.218Z,99215.67
2018-12-31T17:35:17.560Z,99202.70
2018-12-31T17:37:43.687Z,99200.55
2018-12-31T17:40:09.923Z,99182.19
2018-12-31T17:42:36.178Z,99174.78
2018-12-31T17:48:03.353Z,99164.34
2018-12-31T17:50:29.583Z,99155.67
2018-12-31T17:52:55.721Z,99159.55
2018-12-31T17:55:21.848Z,99149.11
2018-12-31T17:57:48.099Z,99162.15
2018-12-31T18:00:14.537Z,99148.63
2018-12-31T18:02:40.778Z,99117.75
2018-12-31T18:05:07.017Z,99128.59
2018-12-31T18:07:33.258Z,99136.45
2018-12-31T18:09:59.474Z,99101.55
2018-12-31T18:12:25.728Z,99101.55
2018-12-31T18:14:52.060Z,99098.50
2018-12-31T18:17:18.311Z,99091.19
2018-12-31T18:19:44.442Z,99088.92
2018-12-31T18:22:10.679Z,99079.38
2018-12-31T18:24:36.807Z,99080.39
2018-12-31T18:27:03.064Z,99071.67
2018-12-31T18:29:31.198Z,99056.77
2018-12-31T18:31:57.441Z,99061.13
2018-12-31T18:34:23.605Z,99056.77
2018-12-31T18:36:49.843Z,99051.89
2018-12-31T18:39:15.978Z,99041.05
2018-12-31T18:41:42.222Z,99018.80
2018-12-31T18:44:08.450Z,99020.15
2018-12-31T18:46:34.680Z,99012.66
2018-12-31T18:49:00.920Z,99007.97
2018-12-31T18:51:27.188Z,99018.84
2018-12-31T18:53:53.463Z,99007.45
2018-12-31T18:56:19.688Z,98999.25
2018-12-31T18:58:46.498Z,98993.10
2018-12-31T19:01:14.090Z,98988.34
2018-12-31T19:03:40.328Z,98998.31
2018-12-31T19:06:06.551Z,98982.30
2018-12-31T19:08:33.291Z,98968.33
2018-12-31T19:14:01.121Z,98961.44
2018-12-31T19:16:27.239Z,98968.33
2018-12-31T19:18:53.486Z,98944.36
2018-12-31T19:21:19.621Z,98953.49
2018-12-31T19:23:46.169Z,98949.06
2018-12-31T19:26:12.431Z,98946.45
2018-12-31T19:28:38.684Z,98934.30
2018-12-31T19:31:04.912Z,98924.80
2018-12-31T19:33:31.239Z,98917.43
2018-12-31T19:35:57.479Z,98914.30
2018-12-31T19:38:23.719Z,98908.11
2018-12-31T19:40:50.146Z,98905.05
2018-12-31T19:43:16.387Z,98904.56
2018-12-31T19:45:42.624Z,98897.18
2018-12-31T19:48:08.874Z,98885.56
2018-12-31T19:50:35.107Z,98871.59
2018-12-31T19:53:01.358Z,98876.44
2018-12-31T19:55:27.589Z,98862.55
2018-12-31T19:57:53.908Z,98872.52
2018-12-31T20:02:53.898Z,98846.81
2018-12-31T20:05:20.148Z,98842.41
2018-12-31T20:07:46.369Z,98846.45
2018-12-31T20:10:12.938Z,98843.72
2018-12-31T20:15:48.682Z,98812.91
2018-12-31T20:18:14.688Z,98807.20
2018-12-31T20:20:40.840Z,98810.13
2018-12-31T20:23:07.079Z,98817.06
2018-12-31T20:25:33.350Z,98796.64
2018-12-31T20:27:59.579Z,98770.86
2018-12-31T20:30:25.827Z,98779.56
2018-12-31T20:32:52.060Z,98771.69
2018-12-31T20:35:18.318Z,98767.82
2018-12-31T20:37:44.564Z,98758.16
2018-12-31T20:40:10.820Z,98748.53
2018-12-31T20:42:36.950Z,98749.44
2018-12-31T20:45:44.502Z,98738.60
2018-12-31T20:48:10.766Z,98738.10
2018-12-31T20:50:37.012Z,98719.44
2018-12-31T20:53:03.253Z,98700.78
2018-12-31T20:55:29.394Z,98713.82
2018-12-31T20:57:55.519Z,98705.95
2018-12-31T21:00:21.767Z,98683.77
2018-12-31T21:02:47.999Z,98698.17
2018-12-31T21:05:14.274Z,98702.48
2018-12-31T21:07:40.497Z,98688.45
2018-12-31T21:10:48.053Z,98691.06
2018-12-31T21:13:14.288Z,98689.39
2018-12-31T21:15:40.528Z,98686.43
2018-12-31T21:18:07.136Z,98684.76
2018-12-31T21:20:33.268Z,98693.03
2018-12-31T21:22:59.404Z,98694.84
2018-12-31T21:25:25.566Z,98699.11
2018-12-31T21:27:51.803Z,98682.52
2018-12-31T21:30:18.110Z,98678.73
2018-12-31T21:32:44.372Z,98683.05
2018-12-31T21:35:10.499Z,98668.66
2018-12-31T21:37:36.766Z,98659.17
2018-12-31T21:43:16.467Z,98639.70
2018-12-31T21:45:42.800Z,98645.77
2018-12-31T21:48:09.426Z,98633.04
2018-12-31T21:50:35.672Z,98633.09
2018-12-31T21:53:01.996Z,98639.70
2018-12-31T21:55:28.227Z,98637.45
2018-12-31T21:57:54.480Z,98635.70
2018-12-31T22:00:20.937Z,98642.22
2018-12-31T22:02:47.212Z,98639.56
2018-12-31T22:05:13.460Z,98631.20
2018-12-31T22:08:22.909Z,98634.13
2018-12-31T22:10:49.162Z,98620.31
2018-12-31T22:13:15.419Z,98619.15
2018-12-31T22:18:57.630Z,98615.77
2018-12-31T22:21:23.877Z,98609.89
2018-12-31T22:23:50.153Z,98599.14
2018-12-31T22:26:16.441Z,98594.11
2018-12-31T22:32:18.891Z,98586.41
2018-12-31T22:40:55.741Z,98556.83
2018-12-31T22:43:23.888Z,98554.81
2018-12-31T22:45:50.144Z,98546.14
2018-12-31T22:48:16.428Z,98544.84
2018-12-31T22:50:42.663Z,98533.55
2018-12-31T22:53:08.811Z,98538.32
2018-12-31T22:55:34.944Z,98538.77
2018-12-31T22:58:01.085Z,98534.48
2018-12-31T23:01:08.615Z,98525.47
2018-12-31T23:03:34.877Z,98522.55
2018-12-31T23:06:01.538Z,98518.00
2018-12-31T23:08:27.772Z,98514.09
2018-12-31T23:10:54.021Z,98505.34
2018-12-31T23:13:20.147Z,98505.02
2018-12-31T23:15:47.393Z,98503.72
2018-12-31T23:18:14.435Z,98509.78
2018-12-31T23:20:47.889Z,98500.34
2018-12-31T23:25:46.796Z,98483.86
2018-12-31T23:28:13.022Z,98483.00
2018-12-31T23:30:39.277Z,98468.22
2018-12-31T23:33:05.406Z,98465.75
2018-12-31T23:35:31.568Z,98460.00
2018-12-31T23:37:57.680Z,98453.83
2018-12-31T23:40:23.919Z,98440.31
2018-12-31T23:42:50.044Z,98444.63
2018-12-31T23:45:16.180Z,98437.97
2018-12-31T23:47:42.303Z,98422.87
2018-12-31T23:50:09.043Z,98419.45
2018-12-31T23:52:35.299Z,98418.59
2018-12-31T23:55:01.591Z,98416.53
2018-12-31T23:57:27.715Z,98440.75
2018-12-31T23:59:53.955Z,98419.08
